Time;durP1;ratioP1;P1;durP2;ratioP2;P2;SDS_P1;SDS_P2;PMS_P1;PMS_P2;Temp;Humidity;BMP_temperature;BMP_pressure;BME280_temperature;BME280_humidity;BME280_pressure;Samples;Min_cycle;Max_cycle;Signal;HPM_P1;HPM_P2
2021/01/21 00:00:36;;;;;;;;;;;;;;;16.60;58.81;101666.78;5020994;28;1504;-59
2021/01/21 00:03:02;;;;;;;;;;;;;;;16.50;58.52;101657.66;5024235;28;1452;-58
2021/01/21 00:05:27;;;;;;;;;;;;;;;16.50;58.87;101663.00;5021686;28;1441;-58
2021/01/21 00:07:53;;;;;;;;;;;;;;;16.43;58.93;101658.97;5025015;28;1485;-58
2021/01/21 00:10:18;;;;;;;;;;;;;;;16.41;57.91;101647.53;5026741;28;1429;-57
2021/01/21 00:12:43;;;;;;;;;;;;;;;16.41;58.68;101656.44;5022074;28;1926;-58
2021/01/21 00:15:09;;;;;;;;;;;;;;;16.37;58.05;101662.88;5020159;28;1514;-57
2021/01/21 00:17:34;;;;;;;;;;;;;;;16.38;59.02;101661.94;5022889;28;1488;-58
2021/01/21 00:19:59;;;;;;;;;;;;;;;16.36;59.11;101663.00;5019798;28;1432;-57
2021/01/21 00:22:25;;;;;;;;;;;;;;;16.35;58.71;101669.28;5019926;28;1429;-57
2021/01/21 00:24:50;;;;;;;;;;;;;;;16.30;59.27;101658.91;5023388;28;1429;-57
2021/01/21 00:27:16;;;;;;;;;;;;;;;16.29;58.30;101652.72;5023110;28;1470;-58
2021/01/21 00:29:41;;;;;;;;;;;;;;;16.29;58.07;101663.41;5023132;28;1409;-57
2021/01/21 00:32:06;;;;;;;;;;;;;;;16.27;58.47;101675.97;5028960;28;1886;-57
2021/01/21 00:34:32;;;;;;;;;;;;;;;16.25;58.91;101675.22;5021212;28;1504;-58
2021/01/21 00:36:57;;;;;;;;;;;;;;;16.20;59.56;101668.44;5022373;28;1461;-58
2021/01/21 00:39:22;;;;;;;;;;;;;;;16.23;58.32;101660.22;5025410;28;1548;-58
2021/01/21 00:41:48;;;;;;;;;;;;;;;16.21;59.13;101662.97;5025154;28;1528;-58
2021/01/21 00:44:13;;;;;;;;;;;;;;;16.22;59.35;101664.72;5030969;28;1473;-57
2021/01/21 00:46:38;;;;;;;;;;;;;;;16.17;59.31;101656.13;5030338;28;1468;-57
2021/01/21 00:49:04;;;;;;;;;;;;;;;16.19;58.27;101670.22;5028670;28;1417;-58
2021/01/21 00:51:29;;;;;;;;;;;;;;;16.14;59.36;101652.81;5020837;28;1953;-57
2021/01/21 00:53:54;;;;;;;;;;;;;;;16.16;59.17;101653.56;5023603;28;1555;-57
2021/01/21 00:56:20;;;;;;;;;;;;;;;16.14;59.08;101664.34;5029953;28;1598;-57
2021/01/21 00:58:45;;;;;;;;;;;;;;;16.14;58.07;101653.66;5019930;28;1469;-57
2021/01/21 01:01:11;;;;;;;;;;;;;;;16.15;58.91;101636.69;5027016;28;1441;-57
2021/01/21 01:03:36;;;;;;;;;;;;;;;16.14;59.22;101644.81;5024304;28;1607;-57
2021/01/21 01:06:05;;;;;;;;;;;;;;;16.20;58.06;101644.44;5025814;28;1719;-57
2021/01/21 01:08:30;;;;;;;;;;;;;;;16.20;58.53;101647.09;5029189;28;1444;-57
2021/01/21 01:10:56;;;;;;;;;;;;;;;16.18;58.48;101641.00;5025896;28;1480;-58
2021/01/21 01:13:21;;;;;;;;;;;;;;;16.14;58.83;101640.31;5026698;28;1910;-58
2021/01/21 01:15:47;;;;;;;;;;;;;;;16.13;57.93;101641.25;5012227;28;1567;-58
2021/01/21 01:18:12;;;;;;;;;;;;;;;16.10;58.40;101644.13;5010594;28;1572;-57
2021/01/21 01:20:37;;;;;;;;;;;;;;;16.11;57.90;101645.84;5016939;28;1609;-57
2021/01/21 01:23:03;;;;;;;;;;;;;;;16.08;57.77;101646.03;5023155;28;1520;-58
2021/01/21 01:25:28;;;;;;;;;;;;;;;16.03;58.57;101637.44;5021922;28;1465;-58
2021/01/21 01:27:53;;;;;;;;;;;;;;;16.08;59.12;101644.22;5020290;28;1464;-57
2021/01/21 01:30:19;;;;;;;;;;;;;;;16.05;58.17;101639.06;5030205;28;1536;-57
2021/01/21 01:32:48;;;;;;;;;;;;;;;16.04;58.57;101641.84;5021211;28;1973;-58
2021/01/21 01:35:14;;;;;;;;;;;;;;;15.99;58.21;101633.25;5026465;28;1476;-58
2021/01/21 01:37:39;;;;;;;;;;;;;;;15.94;58.86;101633.56;5023665;28;1430;-57
2021/01/21 01:40:08;;;;;;;;;;;;;;;15.95;58.64;101626.41;5019843;28;1524;-58
2021/01/21 01:42:33;;;;;;;;;;;;;;;15.95;59.01;101623.72;5023942;28;1567;-57
2021/01/21 01:44:59;;;;;;;;;;;;;;;15.95;58.70;101640.59;5022308;28;1456;-57
2021/01/21 01:47:25;;;;;;;;;;;;;;;15.94;59.52;101628.22;5025264;28;1406;-58
2021/01/21 01:49:53;;;;;;;;;;;;;;;15.90;58.47;101630.22;5028703;28;1413;-57
2021/01/21 01:52:18;;;;;;;;;;;;;;;15.89;58.27;101617.81;5027137;28;1878;-57
2021/01/21 01:54:44;;;;;;;;;;;;;;;15.93;59.32;101625.63;5023652;28;1453;-57
2021/01/21 01:57:10;;;;;;;;;;;;;;;15.89;59.20;101619.63;5028352;28;1532;-58
2021/01/21 01:59:36;;;;;;;;;;;;;;;15.87;58.60;101622.38;5029581;28;1568;-58
2021/01/21 02:02:01;;;;;;;;;;;;;;;15.87;59.12;101610.88;5020874;28;1484;-57
2021/01/21 02:04:27;;;;;;;;;;;;;;;15.84;59.24;101621.75;5013242;28;1468;-57
2021/01/21 02:06:52;;;;;;;;;;;;;;;15.85;58.77;101618.94;5025793;28;1461;-58
2021/01/21 02:09:18;;;;;;;;;;;;;;;15.83;59.52;101604.84;5025751;28;1469;-58
2021/01/21 02:11:44;;;;;;;;;;;;;;;15.85;58.84;101613.63;5023001;28;1998;-58
2021/01/21 02:14:09;;;;;;;;;;;;;;;15.87;59.39;101589.53;5029099;28;1505;-57
2021/01/21 02:16:43;;;;;;;;;;;;;;;15.86;59.35;101587.81;5027886;28;1472;-58
2021/01/21 02:19:31;;;;;;;;;;;;;;;15.85;59.03;101592.28;5024191;28;1555;-57
2021/01/21 02:22:03;;;;;;;;;;;;;;;15.85;58.58;101594.94;5010356;28;1534;-59
2021/01/21 02:24:28;;;;;;;;;;;;;;;15.87;58.58;101582.38;5022283;28;1656;-57
2021/01/21 02:27:02;;;;;;;;;;;;;;;15.86;58.78;101583.34;5019478;28;1504;-57
2021/01/21 02:29:37;;;;;;;;;;;;;;;15.85;59.34;101592.28;5025081;28;1429;-58
2021/01/21 02:32:06;;;;;;;;;;;;;;;15.85;59.22;101581.63;5030024;28;1891;-57
2021/01/21 02:34:31;;;;;;;;;;;;;;;15.85;59.34;101588.75;5021464;28;1528;-57
2021/01/21 02:36:58;;;;;;;;;;;;;;;15.83;58.96;101599.53;5024400;28;1574;-57
2021/01/21 02:39:24;;;;;;;;;;;;;;;15.81;59.16;101601.41;5021459;28;1271;-57
2021/01/21 02:41:50;;;;;;;;;;;;;;;15.81;58.69;101601.41;5022189;28;1547;-57
2021/01/21 02:44:15;;;;;;;;;;;;;;;15.76;59.48;101587.53;5027964;28;1512;-57
2021/01/21 02:46:41;;;;;;;;;;;;;;;15.77;59.01;101594.56;5021984;28;1489;-57
2021/01/21 02:49:07;;;;;;;;;;;;;;;15.79;59.48;101607.81;5021837;28;1488;-58
2021/01/21 02:51:41;;;;;;;;;;;;;;;15.73;59.16;101598.38;5018823;28;1941;-57
2021/01/21 02:54:07;;;;;;;;;;;;;;;15.73;58.29;101601.03;5028378;28;1555;-58
2021/01/21 02:56:34;;;;;;;;;;;;;;;15.71;59.26;101592.25;5021717;28;1449;-58
2021/01/21 02:59:02;;;;;;;;;;;;;;;15.73;59.49;101592.19;5023956;28;1559;-57
2021/01/21 03:01:27;;;;;;;;;;;;;;;15.71;58.98;101598.44;5034792;22;2110;-54
2021/01/21 03:03:54;;;;;;;;;;;;;;;15.70;59.54;101593.22;5006683;28;1604;-54
2021/01/21 03:06:21;;;;;;;;;;;;;;;15.69;58.98;101607.47;5000792;28;1544;-54
2021/01/21 03:08:48;;;;;;;;;;;;;;;15.69;59.58;101611.00;5007251;28;1532;-54
2021/01/21 03:11:15;;;;;;;;;;;;;;;15.68;58.29;101605.78;5020102;22;3519;-57
2021/01/21 03:13:44;;;;;;;;;;;;;;;15.65;59.04;101585.47;5012807;28;1910;-57
2021/01/21 03:16:10;;;;;;;;;;;;;;;15.64;59.51;101596.25;5013207;28;1536;-59
2021/01/21 03:18:36;;;;;;;;;;;;;;;15.63;59.66;101599.84;5013863;28;1552;-58
2021/01/21 03:21:01;;;;;;;;;;;;;;;15.66;59.54;101587.19;5014348;28;1489;-57
2021/01/21 03:23:27;;;;;;;;;;;;;;;15.65;59.26;101579.28;5004627;28;1314;-58
2021/01/21 03:25:53;;;;;;;;;;;;;;;15.64;59.04;101588.25;4995443;28;832;-58
2021/01/21 03:28:18;;;;;;;;;;;;;;;15.67;58.48;101596.06;4995492;28;1288;-58
2021/01/21 03:30:43;;;;;;;;;;;;;;;15.62;58.68;101591.00;4994800;28;1326;-58
2021/01/21 03:33:09;;;;;;;;;;;;;;;15.65;58.67;101597.94;4995443;28;1945;-58
2021/01/21 03:35:34;;;;;;;;;;;;;;;15.65;59.24;101595.28;4995247;28;1532;-58
2021/01/21 03:37:59;;;;;;;;;;;;;;;15.69;59.54;101612.81;5013207;28;1477;-58
2021/01/21 03:40:25;;;;;;;;;;;;;;;15.67;59.70;101604.06;5014579;28;1472;-59
2021/01/21 03:42:50;;;;;;;;;;;;;;;15.66;59.63;101613.00;5014371;28;1516;-58
2021/01/21 03:45:16;;;;;;;;;;;;;;;15.63;59.49;101607.84;5013525;28;1535;-58
2021/01/21 03:47:41;;;;;;;;;;;;;;;15.63;59.44;101607.84;5013884;28;1457;-58
2021/01/21 03:50:07;;;;;;;;;;;;;;;15.65;59.68;101614.81;5013849;28;1712;-58
2021/01/21 03:52:32;;;;;;;;;;;;;;;15.63;59.54;101613.19;5013835;28;1941;-57
2021/01/21 03:54:57;;;;;;;;;;;;;;;15.62;59.35;101608.81;5013982;28;1576;-58
2021/01/21 03:57:23;;;;;;;;;;;;;;;15.60;58.94;101603.56;5013467;28;1425;-58
2021/01/21 03:59:48;;;;;;;;;;;;;;;15.63;59.29;101613.19;5013887;28;1639;-57
2021/01/21 04:02:14;;;;;;;;;;;;;;;15.57;59.55;101602.91;5011279;28;1584;-58
2021/01/21 04:04:39;;;;;;;;;;;;;;;15.56;58.88;101595.84;5005684;28;1493;-58
2021/01/21 04:07:04;;;;;;;;;;;;;;;15.58;59.24;101601.94;5004998;28;1551;-58
2021/01/21 04:09:30;;;;;;;;;;;;;;;15.61;59.57;101609.75;5010815;28;1512;-58
2021/01/21 04:11:55;;;;;;;;;;;;;;;15.58;60.21;101599.25;5009259;28;1906;-59
2021/01/21 04:14:21;;;;;;;;;;;;;;;15.58;59.93;101612.59;5003761;28;1548;-58
2021/01/21 04:16:46;;;;;;;;;;;;;;;15.59;60.23;101614.31;4993578;28;1462;-59
2021/01/21 04:19:11;;;;;;;;;;;;;;;15.57;60.00;101602.91;5005814;28;1258;-58
2021/01/21 04:21:37;;;;;;;;;;;;;;;15.59;58.93;101607.19;5006577;28;1485;-59
2021/01/21 04:24:02;;;;;;;;;;;;;;;15.51;59.18;101604.13;5008885;28;1560;-58
2021/01/21 04:26:28;;;;;;;;;;;;;;;15.60;59.83;101614.25;5008566;28;1516;-58
2021/01/21 04:28:53;;;;;;;;;;;;;;;15.58;59.92;101609.94;5002109;28;1272;-57
2021/01/21 04:31:19;;;;;;;;;;;;;;;15.57;59.80;101600.22;5006838;28;1532;-58
2021/01/21 04:33:44;;;;;;;;;;;;;;;15.54;60.41;101603.06;4992032;28;1894;-58
2021/01/21 04:36:10;;;;;;;;;;;;;;;15.48;60.54;101599.84;4986516;28;1637;-58
2021/01/21 04:38:35;;;;;;;;;;;;;;;15.48;60.47;101602.50;4994791;28;1648;-57
2021/01/21 04:41:01;;;;;;;;;;;;;;;15.42;59.71;101594.00;5004715;28;1524;-58
2021/01/21 04:43:26;;;;;;;;;;;;;;;15.44;60.48;101603.63;5007699;28;1564;-58
2021/01/21 04:45:52;;;;;;;;;;;;;;;15.42;59.41;101594.88;5006377;28;1508;-57
2021/01/21 04:48:17;;;;;;;;;;;;;;;15.48;60.54;101609.66;5000652;28;1458;-58
2021/01/21 04:50:43;;;;;;;;;;;;;;;15.48;60.36;101604.31;5009550;28;1509;-58
2021/01/21 04:53:11;;;;;;;;;;;;;;;15.50;60.46;101619.25;5012302;28;1898;-58
2021/01/21 04:55:42;;;;;;;;;;;;;;;15.48;60.25;101614.97;5011432;28;1382;-57
2021/01/21 04:58:26;;;;;;;;;;;;;;;15.54;60.65;101614.63;5007694;28;1588;-58
2021/01/21 05:00:52;;;;;;;;;;;;;;;15.67;60.57;101614.72;5005669;28;1493;-59
2021/01/21 05:03:17;;;;;;;;;;;;;;;15.66;59.58;101613.88;5010633;28;1555;-58
2021/01/21 05:05:43;;;;;;;;;;;;;;;15.67;59.83;101620.03;5003673;28;1581;-58
2021/01/21 05:08:08;;;;;;;;;;;;;;;15.62;61.37;101616.81;5003532;28;1478;-57
2021/01/21 05:10:34;;;;;;;;;;;;;;;15.60;61.60;101614.25;5005343;28;1505;-58
2021/01/21 05:12:59;;;;;;;;;;;;;;;15.55;60.86;101613.66;5004232;28;1969;-58
2021/01/21 05:15:25;;;;;;;;;;;;;;;15.54;61.37;101619.06;5008109;28;1466;-58
2021/01/21 05:17:50;;;;;;;;;;;;;;;15.59;61.89;101628.50;5008638;28;1497;-60
2021/01/21 05:20:15;;;;;;;;;;;;;;;15.56;61.69;101611.81;4998918;28;1219;-58
2021/01/21 05:22:41;;;;;;;;;;;;;;;15.56;60.84;101617.16;5000550;28;1458;-58
2021/01/21 05:25:07;;;;;;;;;;;;;;;15.49;60.88;101616.69;5002160;28;1552;-58
2021/01/21 05:27:34;;;;;;;;;;;;;;;15.50;61.20;101613.09;5009666;28;1572;-59
2021/01/21 05:30:02;;;;;;;;;;;;;;;15.43;60.99;101617.91;5006865;28;1453;-59
2021/01/21 05:32:28;;;;;;;;;;;;;;;15.43;60.61;101607.25;5002075;28;1949;-59
2021/01/21 05:34:53;;;;;;;;;;;;;;;15.40;60.46;101611.88;5009342;28;1602;-58
2021/01/21 05:37:18;;;;;;;;;;;;;;;15.41;60.14;101625.13;5000419;28;1540;-58
2021/01/21 05:39:45;;;;;;;;;;;;;;;15.37;60.39;101607.59;5004773;28;1454;-58
2021/01/21 05:42:11;;;;;;;;;;;;;;;15.37;60.79;101610.28;5003121;28;1544;-58
2021/01/21 05:44:36;;;;;;;;;;;;;;;15.39;60.30;101620.84;5000127;28;1563;-58
2021/01/21 05:47:05;;;;;;;;;;;;;;;15.40;60.15;101634.09;5000216;28;1560;-58
2021/01/21 05:49:31;;;;;;;;;;;;;;;15.35;59.53;101620.16;5003600;28;1642;-58
2021/01/21 05:51:57;;;;;;;;;;;;;;;15.37;60.57;101630.75;5005607;28;1918;-58
2021/01/21 05:54:24;;;;;;;;;;;;;;;15.37;60.76;101634.25;5005752;28;1607;-58
2021/01/21 05:56:49;;;;;;;;;;;;;;;15.37;60.94;101631.59;5001249;28;1576;-58
2021/01/21 05:59:15;;;;;;;;;;;;;;;15.36;60.24;101632.56;5011541;28;1493;-58
2021/01/21 06:01:40;;;;;;;;;;;;;;;15.37;60.57;101634.25;5004105;28;1501;-59
2021/01/21 06:04:06;;;;;;;;;;;;;;;15.34;60.15;101634.47;5006478;28;1585;-58
2021/01/21 06:06:36;;;;;;;;;;;;;;;15.38;60.50;101636.00;5005177;28;1528;-58
2021/01/21 06:09:01;;;;;;;;;;;;;;;15.37;60.27;101636.06;5005435;28;1612;-58
2021/01/21 06:11:28;;;;;;;;;;;;;;;15.39;59.99;101642.16;5000441;28;1603;-59
2021/01/21 06:13:54;;;;;;;;;;;;;;;15.37;59.76;101633.41;5009205;28;1903;-59
2021/01/21 06:16:21;;;;;;;;;;;;;;;15.38;59.87;101636.00;5003476;28;1517;-58
2021/01/21 06:18:46;;;;;;;;;;;;;;;15.46;60.32;101651.53;5006221;28;1525;-58
2021/01/21 06:21:15;;;;;;;;;;;;;;;15.48;60.02;101642.50;5004181;28;1576;-58
2021/01/21 06:23:43;;;;;;;;;;;;;;;15.48;60.03;101638.97;5002464;28;1626;-57
2021/01/21 06:26:08;;;;;;;;;;;;;;;15.49;59.37;101654.84;5000931;28;1558;-57
2021/01/21 06:28:34;;;;;;;;;;;;;;;15.49;60.29;101638.00;5001590;28;1671;-58
2021/01/21 06:31:00;;;;;;;;;;;;;;;15.52;59.22;101644.03;5005336;28;1489;-58
2021/01/21 06:33:26;;;;;;;;;;;;;;;15.53;59.65;101642.22;5009375;28;1889;-58
2021/01/21 06:35:54;;;;;;;;;;;;;;;15.49;59.23;101643.34;5000453;28;1397;-58
2021/01/21 06:38:22;;;;;;;;;;;;;;;15.51;60.04;101642.28;4995827;28;1354;-58
2021/01/21 06:40:50;;;;;;;;;;;;;;;15.48;59.17;101646.97;4995779;28;883;-57
2021/01/21 06:43:17;;;;;;;;;;;;;;;15.50;59.55;101637.94;4996002;28;746;-58
2021/01/21 06:45:43;;;;;;;;;;;;;;;15.50;60.15;101635.25;4996125;28;770;-57
2021/01/21 06:48:10;;;;;;;;;;;;;;;15.46;59.63;101636.38;4995799;28;843;-58
2021/01/21 06:50:36;;;;;;;;;;;;;;;15.47;60.54;101631.91;4999709;28;1541;-58
2021/01/21 06:53:05;;;;;;;;;;;;;;;15.49;60.18;101640.66;5004482;28;1943;-58
2021/01/21 06:55:32;;;;;;;;;;;;;;;15.52;61.02;101649.34;5008875;28;1446;-57
2021/01/21 06:57:58;;;;;;;;;;;;;;;15.50;60.97;101640.59;5005252;28;1334;-58
2021/01/21 07:00:35;;;;;;;;;;;;;;;15.49;60.57;101649.53;4995545;28;1373;-57
2021/01/21 07:03:01;;;;;;;;;;;;;;;15.61;61.05;101642.59;4998523;28;1389;-61
2021/01/21 07:05:27;;;;;;;;;;;;;;;15.90;59.47;101651.53;5009067;28;1528;-58
2021/01/21 07:07:52;;;;;;;;;;;;;;;16.06;59.18;101632.78;5005577;28;1655;-57
2021/01/21 07:10:19;;;;;;;;;;;;;;;16.21;60.17;101641.63;4999598;28;1560;-58
2021/01/21 07:12:45;;;;;;;;;;;;;;;16.35;60.17;101638.09;4995609;28;1981;-58
2021/01/21 07:15:12;;;;;;;;;;;;;;;16.47;58.79;101641.81;4995307;28;1386;-58
2021/01/21 07:17:40;;;;;;;;;;;;;;;16.64;59.05;101644.25;5001548;28;1369;-58
2021/01/21 07:20:06;;;;;;;;;;;;;;;16.86;58.96;101637.56;5005830;28;1592;-57
2021/01/21 07:22:31;;;;;;;;;;;;;;;16.99;58.14;101640.28;5007787;28;1554;-59
2021/01/21 07:24:58;;;;;;;;;;;;;;;17.06;58.35;101629.09;5002193;28;1461;-57
2021/01/21 07:27:25;;;;;;;;;;;;;;;17.25;58.27;101644.78;4995277;28;1371;-59
2021/01/21 07:30:10;;;;;;;;;;;;;;;17.29;57.80;101632.06;4995256;28;1322;-59
2021/01/21 07:32:35;;;;;;;;;;;;;;;17.52;56.93;101632.31;5014533;28;1989;-59
2021/01/21 07:35:01;;;;;;;;;;;;;;;17.63;57.83;101643.16;5009782;28;1291;-58
2021/01/21 07:37:28;;;;;;;;;;;;;;;17.66;57.29;101645.59;4993293;28;1665;-58
2021/01/21 07:39:56;;;;;;;;;;;;;;;17.76;56.42;101632.44;4999156;28;789;-58
2021/01/21 07:42:22;;;;;;;;;;;;;;;17.88;56.50;101643.16;4999002;28;1275;-58
2021/01/21 07:44:55;;;;;;;;;;;;;;;17.97;56.34;101630.13;5002887;28;1545;-58
2021/01/21 07:47:27;;;;;;;;;;;;;;;18.14;55.89;101627.09;5000903;28;1617;-58
2021/01/21 07:50:12;;;;;;;;;;;;;;;18.25;56.67;101629.03;5004755;28;1532;-58
2021/01/21 07:52:41;;;;;;;;;;;;;;;18.32;55.81;101629.44;5012984;28;2041;-57
2021/01/21 07:55:07;;;;;;;;;;;;;;;18.42;55.92;101634.03;5007394;28;1529;-59
2021/01/21 07:57:33;;;;;;;;;;;;;;;18.54;55.68;101621.56;5007064;28;1612;-58
2021/01/21 07:59:59;;;;;;;;;;;;;;;18.65;54.88;101621.63;5003680;28;1568;-57
2021/01/21 08:02:24;;;;;;;;;;;;;;;18.65;55.36;101621.63;4998816;28;1346;-58
2021/01/21 08:04:59;;;;;;;;;;;;;;;18.72;54.96;101615.81;4998636;28;1311;-57
2021/01/21 08:07:42;;;;;;;;;;;;;;;18.62;55.98;101623.69;4997823;28;785;-57
2021/01/21 08:10:07;;;;;;;;;;;;;;;18.41;56.65;101618.06;4998972;28;822;-58
2021/01/21 08:12:33;;;;;;;;;;;;;;;18.38;56.58;101624.50;4997706;28;1922;-57
2021/01/21 08:14:59;;;;;;;;;;;;;;;18.31;56.67;101635.78;4998538;28;1141;-59
2021/01/21 08:17:24;;;;;;;;;;;;;;;18.33;56.97;101641.88;4998536;28;1222;-58
2021/01/21 08:19:49;;;;;;;;;;;;;;;18.34;56.91;101633.72;4998603;28;729;-59
2021/01/21 08:22:15;;;;;;;;;;;;;;;18.32;57.26;101629.44;4998524;28;825;-57
2021/01/21 08:24:59;;;;;;;;;;;;;;;18.23;57.36;101631.81;4998589;28;828;-57
2021/01/21 08:27:40;;;;;;;;;;;;;;;18.24;58.19;101638.00;4998609;28;764;-59
2021/01/21 08:30:13;;;;;;;;;;;;;;;18.21;58.03;101630.22;4998531;28;759;-58
2021/01/21 08:32:40;;;;;;;;;;;;;;;18.19;57.61;101640.19;4998256;28;1886;-57
2021/01/21 08:35:06;;;;;;;;;;;;;;;18.15;57.65;101642.22;4998475;28;947;-59
2021/01/21 08:37:36;;;;;;;;;;;;;;;18.15;57.95;101647.56;5007122;28;1473;-56
2021/01/21 08:40:02;;;;;;;;;;;;;;;18.20;57.17;101636.53;5003412;28;1648;-57
2021/01/21 08:42:27;;;;;;;;;;;;;;;18.31;57.04;101643.81;5005655;28;1563;-60
2021/01/21 08:44:52;;;;;;;;;;;;;;;18.33;56.72;101626.66;4992937;28;1706;-58
2021/01/21 08:47:18;;;;;;;;;;;;;;;18.47;57.00;101639.91;4990208;28;1513;-58
2021/01/21 08:49:52;;;;;;;;;;;;;;;18.52;56.37;101622.63;4991740;28;1418;-58
2021/01/21 08:52:18;;;;;;;;;;;;;;;18.53;56.73;101627.03;4993963;28;1887;-57
2021/01/21 08:54:52;;;;;;;;;;;;;;;18.54;56.51;101623.38;5000153;28;1472;-57
2021/01/21 08:57:21;;;;;;;;;;;;;;;18.49;56.64;101615.69;4994054;28;1446;-57
2021/01/21 08:59:47;;;;;;;;;;;;;;;18.49;56.62;101621.03;4990989;28;1470;-60
2021/01/21 09:02:12;;;;;;;;;;;;;;;18.48;56.61;101633.59;4987104;28;1505;-61
2021/01/21 09:04:38;;;;;;;;;;;;;;;18.42;56.59;101617.97;4989353;28;1515;-56
2021/01/21 09:07:05;;;;;;;;;;;;;;;18.45;56.86;101623.09;4989193;28;1587;-56
2021/01/21 09:09:34;;;;;;;;;;;;;;;18.43;57.06;101613.47;4990705;28;1569;-57
2021/01/21 09:12:26;;;;;;;;;;;;;;;18.44;57.08;101616.03;4997241;28;1902;-60
2021/01/21 09:15:04;;;;;;;;;;;;;;;18.41;56.62;101602.84;4995695;28;1471;-58
2021/01/21 09:17:30;;;;;;;;;;;;;;;18.39;57.09;101607.47;4991225;28;1517;-56
2021/01/21 09:19:55;;;;;;;;;;;;;;;18.40;56.92;101605.63;4993313;28;1535;-56
2021/01/21 09:22:27;;;;;;;;;;;;;;;18.42;56.60;101611.72;4997378;28;1525;-57
2021/01/21 09:24:55;;;;;;;;;;;;;;;18.35;57.09;101605.13;4982336;28;1490;-59
2021/01/21 09:27:24;;;;;;;;;;;;;;;18.38;57.18;101596.84;4987219;28;1423;-57
2021/01/21 09:29:51;;;;;;;;;;;;;;;18.35;57.31;101607.81;4989548;28;1477;-57
2021/01/21 09:32:18;;;;;;;;;;;;;;;18.38;56.38;101602.22;4992497;28;1898;-57
2021/01/21 09:34:54;;;;;;;;;;;;;;;18.36;57.19;101588.94;4984775;28;1556;-57
2021/01/21 09:37:19;;;;;;;;;;;;;;;18.36;57.03;101588.09;4989929;28;1769;-57
2021/01/21 09:39:45;;;;;;;;;;;;;;;18.35;57.31;101586.38;4985203;28;1253;-57
2021/01/21 09:42:10;;;;;;;;;;;;;;;18.34;57.24;101573.94;4985797;28;1049;-58
2021/01/21 09:44:35;;;;;;;;;;;;;;;18.38;57.13;101596.84;4988145;28;1561;-58
2021/01/21 09:47:00;;;;;;;;;;;;;;;18.39;57.26;101582.53;4990816;28;1496;-58
2021/01/21 09:49:26;;;;;;;;;;;;;;;18.43;56.65;101578.66;4991798;28;1572;-57
2021/01/21 09:51:51;;;;;;;;;;;;;;;18.43;57.18;101584.84;4989497;28;1890;-57
2021/01/21 09:54:16;;;;;;;;;;;;;;;18.45;57.29;101566.00;5007227;28;1505;-58
2021/01/21 09:56:41;;;;;;;;;;;;;;;18.41;56.51;101565.34;4994841;28;1483;-58
2021/01/21 09:59:07;;;;;;;;;;;;;;;18.46;57.15;101551.63;4997036;28;1488;-61
2021/01/21 10:01:32;;;;;;;;;;;;;;;18.46;57.37;101557.84;4993988;28;1533;-61
2021/01/21 10:03:57;;;;;;;;;;;;;;;18.48;57.91;101545.22;4993216;28;1476;-66
2021/01/21 10:06:22;;;;;;;;;;;;;;;18.50;57.38;101558.47;5003506;28;1445;-63
2021/01/21 10:08:49;;;;;;;;;;;;;;;18.50;57.80;101550.44;4986315;28;1471;-62
2021/01/21 10:11:14;;;;;;;;;;;;;;;18.49;58.08;101536.19;5004681;28;1426;-63
2021/01/21 10:13:39;;;;;;;;;;;;;;;18.54;57.64;101546.56;5002288;28;1920;-65
2021/01/21 10:16:05;;;;;;;;;;;;;;;18.55;57.98;101529.53;4999917;28;1457;-60
2021/01/21 10:18:30;;;;;;;;;;;;;;;18.63;57.84;101535.16;4999182;28;1513;-59
2021/01/21 10:20:55;;;;;;;;;;;;;;;18.60;57.94;101532.72;4997149;28;1545;-60
2021/01/21 10:23:21;;;;;;;;;;;;;;;18.59;57.41;101536.38;4997896;28;1460;-60
2021/01/21 10:25:46;;;;;;;;;;;;;;;18.49;57.60;101535.34;4997678;28;1342;-59
2021/01/21 10:28:12;;;;;;;;;;;;;;;18.48;57.95;101533.63;4997362;28;1400;-60
2021/01/21 10:30:37;;;;;;;;;;;;;;;18.51;58.02;101536.09;5001174;28;1477;-60
2021/01/21 10:33:02;;;;;;;;;;;;;;;18.58;57.90;101526.63;5002653;28;1935;-59
2021/01/21 10:35:27;;;;;;;;;;;;;;;18.59;57.61;101517.63;4996557;28;1614;-61
2021/01/21 10:37:53;;;;;;;;;;;;;;;18.58;57.78;101523.06;4992282;28;1262;-61
2021/01/21 10:40:18;;;;;;;;;;;;;;;18.62;57.60;101516.53;4980499;28;1682;-60
2021/01/21 10:42:44;;;;;;;;;;;;;;;18.58;57.26;101510.56;4995430;28;876;-62
2021/01/21 10:45:09;;;;;;;;;;;;;;;18.58;57.79;101507.00;4995007;28;1343;-60
2021/01/21 10:47:34;;;;;;;;;;;;;;;18.58;57.89;101512.38;4995454;28;1440;-61
2021/01/21 10:50:00;;;;;;;;;;;;;;;18.59;57.92;101506.06;4995789;28;1257;-61
2021/01/21 10:52:25;;;;;;;;;;;;;;;18.56;57.26;101480.34;4998534;28;1885;-60
2021/01/21 10:54:51;;;;;;;;;;;;;;;18.56;57.75;101485.72;4994686;28;1453;-61
2021/01/21 10:57:17;;;;;;;;;;;;;;;18.58;57.62;101496.28;4995784;28;1517;-60
2021/01/21 10:59:42;;;;;;;;;;;;;;;18.56;57.98;101493.75;4995799;28;773;-62
2021/01/21 11:02:08;;;;;;;;;;;;;;;18.56;57.75;101482.16;4995608;28;1636;-60
2021/01/21 11:04:33;;;;;;;;;;;;;;;18.54;57.59;101484.09;5011805;28;1643;-63
2021/01/21 11:06:58;;;;;;;;;;;;;;;18.51;57.33;101469.13;4999773;28;1627;-63
2021/01/21 11:09:35;;;;;;;;;;;;;;;18.51;57.10;101466.44;5000884;28;1577;-59
2021/01/21 11:12:00;;;;;;;;;;;;;;;18.52;57.79;101460.09;5005942;28;1906;-61
2021/01/21 11:14:26;;;;;;;;;;;;;;;18.51;57.69;101462.91;5005896;28;1512;-60
2021/01/21 11:16:51;;;;;;;;;;;;;;;18.47;56.93;101462.28;5008026;28;1520;-61
2021/01/21 11:19:16;;;;;;;;;;;;;;;18.45;57.09;101464.22;5013080;28;1441;-59
2021/01/21 11:21:41;;;;;;;;;;;;;;;18.42;57.53;101472.47;5000600;28;1517;-60
2021/01/21 11:24:07;;;;;;;;;;;;;;;18.37;57.44;101462.13;4994599;28;867;-60
2021/01/21 11:26:32;;;;;;;;;;;;;;;18.42;56.86;101448.38;4994639;28;738;-61
2021/01/21 11:28:57;;;;;;;;;;;;;;;18.45;57.48;101456.19;4995297;28;793;-59
2021/01/21 11:31:23;;;;;;;;;;;;;;;18.46;56.55;101449.84;4995184;28;1151;-59
2021/01/21 11:33:48;;;;;;;;;;;;;;;18.48;56.66;101438.09;4995250;28;1898;-61
2021/01/21 11:36:13;;;;;;;;;;;;;;;18.49;56.98;101453.16;4995555;28;819;-59
2021/01/21 11:38:38;;;;;;;;;;;;;;;18.51;56.80;101447.69;4995173;28;742;-59
2021/01/21 11:41:04;;;;;;;;;;;;;;;18.56;56.78;101445.53;4995222;28;742;-61
2021/01/21 11:43:29;;;;;;;;;;;;;;;18.54;57.07;101444.78;4994269;28;853;-60
2021/01/21 11:45:54;;;;;;;;;;;;;;;18.57;57.06;101435.66;4995431;28;740;-60
2021/01/21 11:48:20;;;;;;;;;;;;;;;18.53;57.17;101423.47;4995134;28;797;-60
2021/01/21 11:50:45;;;;;;;;;;;;;;;18.49;57.04;101420.19;4995458;28;887;-60
2021/01/21 11:53:11;;;;;;;;;;;;;;;18.50;57.29;101419.19;4994025;28;1914;-59
2021/01/21 11:55:36;;;;;;;;;;;;;;;18.55;57.16;101416.19;4995047;28;797;-61
2021/01/21 11:58:01;;;;;;;;;;;;;;;18.57;57.41;101414.25;4995365;28;829;-61
2021/01/21 12:00:27;;;;;;;;;;;;;;;18.58;57.93;101413.25;4995224;28;752;-59
2021/01/21 12:02:52;;;;;;;;;;;;;;;18.53;58.09;101397.53;4994920;28;1372;-59
2021/01/21 12:05:17;;;;;;;;;;;;;;;18.53;57.96;101405.59;4994969;28;805;-59
2021/01/21 12:07:42;;;;;;;;;;;;;;;18.51;58.20;101412.03;4995154;28;754;-60
2021/01/21 12:10:08;;;;;;;;;;;;;;;18.46;58.30;101393.63;4995246;28;793;-59
2021/01/21 12:12:34;;;;;;;;;;;;;;;18.46;58.43;101394.50;4994676;28;1918;-60
2021/01/21 12:14:59;;;;;;;;;;;;;;;18.47;57.97;101406.91;4994834;28;814;-60
2021/01/21 12:17:24;;;;;;;;;;;;;;;18.47;58.35;101411.41;4994885;28;801;-59
2021/01/21 12:19:49;;;;;;;;;;;;;;;18.42;58.31;101405.53;4995238;28;1474;-61
2021/01/21 12:22:15;;;;;;;;;;;;;;;18.42;58.09;101395.69;4995527;28;813;-60
2021/01/21 12:24:40;;;;;;;;;;;;;;;18.40;58.72;101423.53;4998501;28;749;-59
2021/01/21 12:27:06;;;;;;;;;;;;;;;18.38;58.57;101402.25;4998412;28;780;-61
2021/01/21 12:29:31;;;;;;;;;;;;;;;18.40;58.56;101410.16;4997406;28;754;-59
2021/01/21 12:31:57;;;;;;;;;;;;;;;18.38;58.85;101407.63;4998328;28;1886;-59
2021/01/21 12:34:23;;;;;;;;;;;;;;;18.42;58.69;101406.41;4998284;28;785;-61
2021/01/21 12:36:48;;;;;;;;;;;;;;;18.34;58.76;101402.59;4998534;28;827;-61
2021/01/21 12:39:13;;;;;;;;;;;;;;;18.35;58.92;101402.47;4998322;28;833;-60
2021/01/21 12:41:40;;;;;;;;;;;;;;;18.35;58.83;101405.16;4998060;28;866;-59
2021/01/21 12:44:05;;;;;;;;;;;;;;;18.28;58.80;101391.38;4998011;28;810;-61